Terminal Aerodrome Forecast
Issued by NWS Boston, MA

Home | Current Version | Previous Version | Text Only | Print | Product List | Glossary On
Versions: 1 2 3 4 5 6 7 8 9 10 11 12 13 14 15 16 17 18 19 20 21 22 23 24 25 26 27 28 29 30 31 32 33 34 35 36 37 38 39 40 41 42 43 44 45 46 47 48 49 50
335
FTUS41 KBOX 270309 AAB
TAFBOS
TAF AMD
KBOS 270309Z 2703/2806 35005KT 6SM BR SCT008 BKN015
     FM270600 29004KT 6SM BR BKN020
     FM271100 36010KT 6SM BR BKN020
     FM271300 03008KT P6SM BKN020
     FM271500 08007KT P6SM BKN025
     FM280000 12007KT P6SM BKN030
     FM280200 15005KT P6SM SCT035=

USA.gov is the U.S. government's official web portal to all federal, state and local government web resources and services.